Hilton Head, South Carolina
Current Conditions -  °F | °C
As of 12:50 PM on Saturday 20 Dec 2014 (Local Time) from KHXD Reporting Station
Overcast Overcast  
Wind Chill: 54°   Ceiling: 600
Heat Index: 54°   Visibility: 8mi
Dew Point: 52°   Wind: 10mph
Humidity: 94%   Direction: 10°N
Pressure: 30.17"   Gusts: NA
Location:  32.2222°N, 80.7332°W
Report Text: KHXD 201750Z 01009KT 8SM OVC006 12/11 A3017
Loading
Personal Weather Stations






























Interactive Weather Map New forecast layout! Learn more

10-Day Weather Forecast

Advertisements
Track Severe Weather on mobile